Del Norte, CO

4:50 AM MDT on August 29, 2014 (GMT -0600)
Wolf Creek Pass | Change Station
CLOSE
Current Station
Airport
Location: Wolf Creek Pass,
Elevation: 11759 ft
Nearby Weather Stations

Elev 11759 ft 37.45 °N, 106.80 °W | Updated 11 minutes ago

Clear
Clear
37 °F
Feels Like 31 °F
N
8
Wind Variable Wind from NNE

Today
High -- | Low -- °F
--% Chance of Precip.
Yesterday
High -- | Low -- °F
Precip. -- in
6:33 AM 7:38 PM
Waxing Crescent, 13% visible
Pressure 30.52 in
Visibility 10.0 miles
Clouds Clear
Windchill 31 °F
Dew Point 30 °F
Humidity 75%
Rainfall 0.00 in
Snow Depth 0 in
UV 0 out of 12
Pollen 9.80 out of 12
Air Quality Not available.
Flu Activity Not available.
METAR KCPW 291039Z AUTO 03007KT 10SM CLR 03/M01 A3052 RMK AO2

More Conditions Fewer Conditions

Pressure 30.52 in
Visibility 10.0 miles
Clouds Clear
Windchill 31 °F
Dew Point 30 °F
Humidity 75%
Rainfall 0.00 in
Snow Depth 0 in
UV 0 out of 12
Pollen 9.80 out of 12
Air Quality Not available.
Flu Activity Not available.
METAR KCPW 291039Z AUTO 03007KT 10SM CLR 03/M01 A3052 RMK AO2

More Conditions Fewer Conditions

10-Day Weather Forecast

Almanac

Astronomy

Aug. 29, 2014 Rise Set
Actual Time 6:33 AM MDT 7:38 PM MDT
Civil Twilight 6:06 AM MDT 8:05 PM MDT
Nautical Twilight 5:34 AM MDT 8:37 PM MDT
Astronomical Twilight 5:00 AM MDT 9:11 PM MDT
Moon 10:20 AM MDT 9:43 PM MDT
Length of Visible Light 13h 59m
Length of Day
13h 05m
Tomorrow will be 2m 18s shorter.
Waxing Crescent, 13% of the Moon is Illuminated
Today
Waxing Crescent
Sep 2
First Quarter
Sep 8
Full
Sep 15
Last Quarter
Sep 24
New

Today's Extremes

State Highs State Lows

Community

WunderPhotos

Upload Photos

1,748,208 photos uploaded!

Nearby

Snow Depth

Station Depth Elevation
Lily Pond 0 in 11000 ft
Wolf Creek Summit 0 in 11000 ft
Upper San Juan 1 in 10130 ft
Middle Creek 0 in 11250 ft
Cochetopa Pass 0 in 10020 ft

Earthquake Activity

City Distance Mag. Time & Date
No recent earthquake activity has been reported nearby.
Minimum magnitude displayed is 2.5.

Coastal Water Temperatures

Place Temperature
No Stations Reporting

Nearby Weather Stations